sensor_id;sensor_type;location;lat;lon;timestamp;pressure;altitude;pressure_sealevel;temperature;humidity
50302;BME280;36550;50.472;19.744;2023-04-21T00:00:56;98286.79;;;7.54;79.30
50302;BME280;36550;50.472;19.744;2023-04-21T00:03:39;98284.83;;;7.51;79.23
50302;BME280;36550;50.472;19.744;2023-04-21T00:06:24;98285.64;;;7.49;79.31
50302;BME280;36550;50.472;19.744;2023-04-21T00:09:09;98286.14;;;7.44;79.15
50302;BME280;36550;50.472;19.744;2023-04-21T00:11:54;98285.52;;;7.38;78.98
50302;BME280;36550;50.472;19.744;2023-04-21T00:14:38;98286.38;;;7.33;78.88
50302;BME280;36550;50.472;19.744;2023-04-21T00:17:22;98286.88;;;7.28;78.98
50302;BME280;36550;50.472;19.744;2023-04-21T00:20:06;98285.16;;;7.21;78.85
50302;BME280;36550;50.472;19.744;2023-04-21T00:22:53;98283.98;;;7.13;78.88
50302;BME280;36550;50.472;19.744;2023-04-21T00:25:37;98284.77;;;7.04;78.94
50302;BME280;36550;50.472;19.744;2023-04-21T00:28:21;98282.84;;;6.96;78.98
50302;BME280;36550;50.472;19.744;2023-04-21T00:31:06;98282.48;;;6.87;78.91
50302;BME280;36550;50.472;19.744;2023-04-21T00:33:50;98283.38;;;6.75;78.80
50302;BME280;36550;50.472;19.744;2023-04-21T00:36:34;98281.74;;;6.63;78.43
50302;BME280;36550;50.472;19.744;2023-04-21T00:39:18;98281.12;;;6.51;78.29
50302;BME280;36550;50.472;19.744;2023-04-21T00:42:02;98279.15;;;6.41;78.26
50302;BME280;36550;50.472;19.744;2023-04-21T00:44:45;98282.71;;;6.33;78.46
50302;BME280;36550;50.472;19.744;2023-04-21T00:47:29;98281.61;;;6.25;78.73
50302;BME280;36550;50.472;19.744;2023-04-21T00:50:14;98284.02;;;6.17;78.76
50302;BME280;36550;50.472;19.744;2023-04-21T00:52:58;98278.44;;;6.07;78.66
50302;BME280;36550;50.472;19.744;2023-04-21T00:55:42;98277.01;;;5.96;78.56
50302;BME280;36550;50.472;19.744;2023-04-21T00:58:27;98281.26;;;5.87;78.66
50302;BME280;36550;50.472;19.744;2023-04-21T01:01:12;98280.91;;;5.79;78.68
50302;BME280;36550;50.472;19.744;2023-04-21T01:03:59;98278.13;;;5.72;78.57
50302;BME280;36550;50.472;19.744;2023-04-21T01:06:44;98273.53;;;5.64;78.27
50302;BME280;36550;50.472;19.744;2023-04-21T01:09:28;98276.84;;;5.55;78.30
50302;BME280;36550;50.472;19.744;2023-04-21T01:12:12;98274.94;;;5.50;78.50
50302;BME280;36550;50.472;19.744;2023-04-21T01:14:56;98280.97;;;5.46;78.65
50302;BME280;36550;50.472;19.744;2023-04-21T01:17:40;98273.41;;;5.38;78.65
50302;BME280;36550;50.472;19.744;2023-04-21T01:20:25;98274.41;;;5.30;78.66
50302;BME280;36550;50.472;19.744;2023-04-21T01:23:09;98276.46;;;5.25;78.85
50302;BME280;36550;50.472;19.744;2023-04-21T01:25:53;98278.77;;;5.20;78.97
50302;BME280;36550;50.472;19.744;2023-04-21T01:28:37;98281.48;;;5.17;79.17
50302;BME280;36550;50.472;19.744;2023-04-21T01:31:21;98282.05;;;5.12;79.07
50302;BME280;36550;50.472;19.744;2023-04-21T01:34:06;98280.77;;;5.06;78.82
50302;BME280;36550;50.472;19.744;2023-04-21T01:36:50;98280.45;;;5.00;78.72
50302;BME280;36550;50.472;19.744;2023-04-21T01:39:42;98280.48;;;4.96;78.76
50302;BME280;36550;50.472;19.744;2023-04-21T01:42:28;98279.83;;;4.93;78.83
50302;BME280;36550;50.472;19.744;2023-04-21T01:45:12;98276.05;;;4.91;79.03
50302;BME280;36550;50.472;19.744;2023-04-21T01:47:56;98272.73;;;4.86;79.05
50302;BME280;36550;50.472;19.744;2023-04-21T01:50:40;98271.34;;;4.79;79.11
50302;BME280;36550;50.472;19.744;2023-04-21T01:53:24;98270.22;;;4.74;79.15
50302;BME280;36550;50.472;19.744;2023-04-21T01:56:12;98269.20;;;4.69;79.17
50302;BME280;36550;50.472;19.744;2023-04-21T01:58:56;98265.56;;;4.63;79.21
50302;BME280;36550;50.472;19.744;2023-04-21T02:01:40;98266.04;;;4.59;79.26
50302;BME280;36550;50.472;19.744;2023-04-21T02:04:24;98266.99;;;4.58;79.15
50302;BME280;36550;50.472;19.744;2023-04-21T02:07:08;98270.23;;;4.54;79.09
50302;BME280;36550;50.472;19.744;2023-04-21T02:09:52;98274.01;;;4.50;78.98
50302;BME280;36550;50.472;19.744;2023-04-21T02:12:36;98270.98;;;4.45;78.95
50302;BME280;36550;50.472;19.744;2023-04-21T02:15:20;98271.46;;;4.40;79.01
50302;BME280;36550;50.472;19.744;2023-04-21T02:18:04;98273.70;;;4.35;79.09
50302;BME280;36550;50.472;19.744;2023-04-21T02:20:49;98273.70;;;4.30;79.19
50302;BME280;36550;50.472;19.744;2023-04-21T02:23:33;98279.06;;;4.27;79.36
50302;BME280;36550;50.472;19.744;2023-04-21T02:26:17;98277.11;;;4.21;79.40
50302;BME280;36550;50.472;19.744;2023-04-21T02:29:02;98277.65;;;4.16;79.36
50302;BME280;36550;50.472;19.744;2023-04-21T02:31:46;98278.08;;;4.11;79.34
50302;BME280;36550;50.472;19.744;2023-04-21T02:34:29;98280.10;;;4.10;79.37
50302;BME280;36550;50.472;19.744;2023-04-21T02:37:14;98280.26;;;4.08;79.36
50302;BME280;36550;50.472;19.744;2023-04-21T02:39:58;98276.88;;;4.06;79.33
50302;BME280;36550;50.472;19.744;2023-04-21T02:42:42;98276.90;;;4.04;79.36
50302;BME280;36550;50.472;19.744;2023-04-21T02:45:26;98277.62;;;4.03;79.38
50302;BME280;36550;50.472;19.744;2023-04-21T02:48:10;98275.62;;;3.99;79.48
50302;BME280;36550;50.472;19.744;2023-04-21T02:50:54;98278.64;;;3.94;79.48
50302;BME280;36550;50.472;19.744;2023-04-21T02:53:38;98281.24;;;3.90;79.60
50302;BME280;36550;50.472;19.744;2023-04-21T02:56:23;98280.91;;;3.84;79.55
50302;BME280;36550;50.472;19.744;2023-04-21T02:59:07;98277.14;;;3.78;79.65
50302;BME280;36550;50.472;19.744;2023-04-21T03:01:51;98275.17;;;3.74;79.73
50302;BME280;36550;50.472;19.744;2023-04-21T03:04:35;98273.78;;;3.75;79.87
50302;BME280;36550;50.472;19.744;2023-04-21T03:07:20;98275.24;;;3.78;79.94
50302;BME280;36550;50.472;19.744;2023-04-21T03:10:05;98271.79;;;3.81;80.05
50302;BME280;36550;50.472;19.744;2023-04-21T03:12:49;98275.75;;;3.81;79.89
50302;BME280;36550;50.472;19.744;2023-04-21T03:15:33;98272.05;;;3.77;79.83
50302;BME280;36550;50.472;19.744;2023-04-21T03:18:17;98272.14;;;3.72;79.81
50302;BME280;36550;50.472;19.744;2023-04-21T03:21:01;98266.21;;;3.66;79.75
50302;BME280;36550;50.472;19.744;2023-04-21T03:23:45;98265.38;;;3.62;79.88
50302;BME280;36550;50.472;19.744;2023-04-21T03:26:30;98261.92;;;3.57;79.85
50302;BME280;36550;50.472;19.744;2023-04-21T03:29:14;98262.93;;;3.52;79.85
50302;BME280;36550;50.472;19.744;2023-04-21T03:31:58;98262.17;;;3.46;79.87
50302;BME280;36550;50.472;19.744;2023-04-21T03:34:42;98262.63;;;3.46;79.82
50302;BME280;36550;50.472;19.744;2023-04-21T03:37:26;98266.47;;;3.45;79.77
50302;BME280;36550;50.472;19.744;2023-04-21T03:40:10;98267.95;;;3.46;79.83
50302;BME280;36550;50.472;19.744;2023-04-21T03:42:53;98276.30;;;3.47;79.83
50302;BME280;36550;50.472;19.744;2023-04-21T03:45:37;98269.48;;;3.47;80.02
50302;BME280;36550;50.472;19.744;2023-04-21T03:48:21;98271.16;;;3.48;80.25
50302;BME280;36550;50.472;19.744;2023-04-21T03:51:05;98275.05;;;3.50;80.44
50302;BME280;36550;50.472;19.744;2023-04-21T03:53:49;98279.64;;;3.52;80.52
50302;BME280;36550;50.472;19.744;2023-04-21T03:56:33;98276.82;;;3.54;80.65
50302;BME280;36550;50.472;19.744;2023-04-21T03:59:17;98279.80;;;3.58;80.64
50302;BME280;36550;50.472;19.744;2023-04-21T04:02:01;98282.93;;;3.65;80.65
50302;BME280;36550;50.472;19.744;2023-04-21T04:04:45;98286.03;;;3.75;80.64
50302;BME280;36550;50.472;19.744;2023-04-21T04:07:33;98284.64;;;3.83;80.70
50302;BME280;36550;50.472;19.744;2023-04-21T04:10:17;98283.48;;;3.94;80.83
50302;BME280;36550;50.472;19.744;2023-04-21T04:13:01;98286.59;;;4.06;80.94
50302;BME280;36550;50.472;19.744;2023-04-21T04:15:44;98290.98;;;4.15;81.01
50302;BME280;36550;50.472;19.744;2023-04-21T04:18:29;98293.23;;;4.24;80.94
50302;BME280;36550;50.472;19.744;2023-04-21T04:21:12;98292.94;;;4.32;80.87
50302;BME280;36550;50.472;19.744;2023-04-21T04:23:56;98297.09;;;4.41;80.88
50302;BME280;36550;50.472;19.744;2023-04-21T04:26:41;98301.14;;;4.53;80.95
50302;BME280;36550;50.472;19.744;2023-04-21T04:29:28;98303.85;;;4.66;80.93
50302;BME280;36550;50.472;19.744;2023-04-21T04:32:11;98308.13;;;4.84;80.87
50302;BME280;36550;50.472;19.744;2023-04-21T04:34:56;98305.46;;;5.03;81.03
50302;BME280;36550;50.472;19.744;2023-04-21T04:37:41;98309.77;;;5.23;81.16
50302;BME280;36550;50.472;19.744;2023-04-21T04:40:25;98307.20;;;5.45;81.24
50302;BME280;36550;50.472;19.744;2023-04-21T04:43:09;98312.70;;;5.69;81.48
50302;BME280;36550;50.472;19.744;2023-04-21T04:45:53;98319.98;;;5.93;81.47
50302;BME280;36550;50.472;19.744;2023-04-21T04:48:38;98323.74;;;6.16;81.74
50302;BME280;36550;50.472;19.744;2023-04-21T04:51:22;98325.47;;;6.38;81.54
50302;BME280;36550;50.472;19.744;2023-04-21T04:54:06;98324.13;;;6.58;81.32
50302;BME280;36550;50.472;19.744;2023-04-21T04:56:50;98323.74;;;6.78;81.17
50302;BME280;36550;50.472;19.744;2023-04-21T04:59:34;98321.55;;;7.00;81.13
50302;BME280;36550;50.472;19.744;2023-04-21T05:02:19;98322.92;;;7.21;80.90
50302;BME280;36550;50.472;19.744;2023-04-21T05:05:05;98319.14;;;7.42;80.91
50302;BME280;36550;50.472;19.744;2023-04-21T05:07:50;98319.81;;;7.64;80.94
50302;BME280;36550;50.472;19.744;2023-04-21T05:10:34;98318.95;;;7.85;80.75
50302;BME280;36550;50.472;19.744;2023-04-21T05:13:17;98317.46;;;8.02;80.61
50302;BME280;36550;50.472;19.744;2023-04-21T05:16:01;98314.64;;;8.21;80.64
50302;BME280;36550;50.472;19.744;2023-04-21T05:18:46;98317.84;;;8.39;80.46
50302;BME280;36550;50.472;19.744;2023-04-21T05:21:34;98321.40;;;8.59;80.25
50302;BME280;36550;50.472;19.744;2023-04-21T05:24:18;98317.05;;;8.76;80.00
50302;BME280;36550;50.472;19.744;2023-04-21T05:27:06;98320.41;;;8.96;79.90
50302;BME280;36550;50.472;19.744;2023-04-21T05:29:50;98320.17;;;9.13;79.70
50302;BME280;36550;50.472;19.744;2023-04-21T05:32:35;98314.73;;;9.29;79.60
50302;BME280;36550;50.472;19.744;2023-04-21T05:35:19;98315.52;;;9.44;79.66
50302;BME280;36550;50.472;19.744;2023-04-21T05:38:03;98314.51;;;9.59;79.40
50302;BME280;36550;50.472;19.744;2023-04-21T05:40:53;98318.10;;;9.71;79.21
50302;BME280;36550;50.472;19.744;2023-04-21T05:43:38;98318.27;;;9.85;78.89
50302;BME280;36550;50.472;19.744;2023-04-21T05:46:22;98322.23;;;9.98;78.52
50302;BME280;36550;50.472;19.744;2023-04-21T05:49:06;98317.65;;;10.12;78.03
50302;BME280;36550;50.472;19.744;2023-04-21T05:51:49;98314.29;;;10.27;78.06
50302;BME280;36550;50.472;19.744;2023-04-21T05:54:33;98314.23;;;10.41;77.87
50302;BME280;36550;50.472;19.744;2023-04-21T05:57:17;98314.39;;;10.54;77.62
50302;BME280;36550;50.472;19.744;2023-04-21T06:00:02;98309.34;;;10.65;76.76
50302;BME280;36550;50.472;19.744;2023-04-21T06:02:45;98305.13;;;10.75;76.66
50302;BME280;36550;50.472;19.744;2023-04-21T06:05:29;98303.63;;;10.86;76.32
50302;BME280;36550;50.472;19.744;2023-04-21T06:08:13;98300.16;;;10.98;76.58
50302;BME280;36550;50.472;19.744;2023-04-21T06:10:57;98300.26;;;11.09;76.26
50302;BME280;36550;50.472;19.744;2023-04-21T06:13:42;98300.60;;;11.21;75.93
50302;BME280;36550;50.472;19.744;2023-04-21T06:16:25;98300.44;;;11.31;75.82
50302;BME280;36550;50.472;19.744;2023-04-21T06:19:11;98299.14;;;11.42;75.17
50302;BME280;36550;50.472;19.744;2023-04-21T06:21:55;98297.36;;;11.51;74.88
50302;BME280;36550;50.472;19.744;2023-04-21T06:24:40;98299.14;;;11.61;74.92
50302;BME280;36550;50.472;19.744;2023-04-21T06:27:24;98304.45;;;11.72;74.86
50302;BME280;36550;50.472;19.744;2023-04-21T06:30:08;98304.57;;;11.84;74.67
50302;BME280;36550;50.472;19.744;2023-04-21T06:32:52;98308.36;;;11.91;74.24
50302;BME280;36550;50.472;19.744;2023-04-21T06:35:36;98305.55;;;11.99;73.88
50302;BME280;36550;50.472;19.744;2023-04-21T06:38:21;98306.02;;;12.08;73.63
50302;BME280;36550;50.472;19.744;2023-04-21T06:41:06;98307.88;;;12.18;73.39
50302;BME280;36550;50.472;19.744;2023-04-21T06:43:50;98305.21;;;12.25;72.72
50302;BME280;36550;50.472;19.744;2023-04-21T06:46:33;98305.67;;;12.31;72.67
50302;BME280;36550;50.472;19.744;2023-04-21T06:49:18;98306.55;;;12.39;72.56
50302;BME280;36550;50.472;19.744;2023-04-21T06:52:03;98301.09;;;12.47;72.39
50302;BME280;36550;50.472;19.744;2023-04-21T06:54:47;98301.13;;;12.56;71.91
50302;BME280;36550;50.472;19.744;2023-04-21T06:57:31;98297.14;;;12.57;71.47
50302;BME280;36550;50.472;19.744;2023-04-21T07:00:16;98302.19;;;12.63;71.76
50302;BME280;36550;50.472;19.744;2023-04-21T07:03:00;98301.95;;;12.72;71.57
50302;BME280;36550;50.472;19.744;2023-04-21T07:05:44;98304.31;;;12.79;71.70
50302;BME280;36550;50.472;19.744;2023-04-21T07:08:29;98303.06;;;12.87;71.41
50302;BME280;36550;50.472;19.744;2023-04-21T07:11:13;98302.49;;;12.95;71.19
50302;BME280;36550;50.472;19.744;2023-04-21T07:13:57;98307.59;;;13.05;71.14
50302;BME280;36550;50.472;19.744;2023-04-21T07:16:44;98306.66;;;13.15;70.66
50302;BME280;36550;50.472;19.744;2023-04-21T07:19:28;98307.27;;;13.20;70.49
50302;BME280;36550;50.472;19.744;2023-04-21T07:22:11;98307.00;;;13.28;70.02
50302;BME280;36550;50.472;19.744;2023-04-21T07:24:55;98305.35;;;13.37;70.05
50302;BME280;36550;50.472;19.744;2023-04-21T07:27:39;98301.39;;;13.47;69.72
50302;BME280;36550;50.472;19.744;2023-04-21T07:30:23;98296.88;;;13.53;69.28
50302;BME280;36550;50.472;19.744;2023-04-21T07:33:07;98295.80;;;13.60;69.31
50302;BME280;36550;50.472;19.744;2023-04-21T07:35:51;98301.05;;;13.67;68.97
50302;BME280;36550;50.472;19.744;2023-04-21T07:38:35;98302.33;;;13.76;68.69
50302;BME280;36550;50.472;19.744;2023-04-21T07:41:21;98303.83;;;13.83;68.43
50302;BME280;36550;50.472;19.744;2023-04-21T07:44:05;98306.90;;;13.90;68.26
50302;BME280;36550;50.472;19.744;2023-04-21T07:46:48;98303.42;;;13.96;68.15
50302;BME280;36550;50.472;19.744;2023-04-21T07:49:32;98302.49;;;14.00;67.73
50302;BME280;36550;50.472;19.744;2023-04-21T07:52:16;98301.82;;;14.05;67.25
50302;BME280;36550;50.472;19.744;2023-04-21T07:55:00;98299.75;;;14.11;67.29
50302;BME280;36550;50.472;19.744;2023-04-21T07:57:44;98303.11;;;14.15;66.62
50302;BME280;36550;50.472;19.744;2023-04-21T08:00:28;98303.58;;;14.18;66.50
50302;BME280;36550;50.472;19.744;2023-04-21T08:03:12;98305.52;;;14.24;66.24
50302;BME280;36550;50.472;19.744;2023-04-21T08:05:56;98304.17;;;14.28;65.86
50302;BME280;36550;50.472;19.744;2023-04-21T08:08:40;98301.98;;;14.29;64.44
50302;BME280;36550;50.472;19.744;2023-04-21T08:11:24;98302.77;;;14.34;65.57
50302;BME280;36550;50.472;19.744;2023-04-21T08:14:08;98303.55;;;14.40;65.56
50302;BME280;36550;50.472;19.744;2023-04-21T08:16:55;98301.17;;;14.40;63.80
50302;BME280;36550;50.472;19.744;2023-04-21T08:19:39;98296.95;;;14.40;64.62
50302;BME280;36550;50.472;19.744;2023-04-21T08:22:23;98295.77;;;14.45;64.90
50302;BME280;36550;50.472;19.744;2023-04-21T08:25:07;98294.34;;;14.51;64.91
50302;BME280;36550;50.472;19.744;2023-04-21T08:27:51;98294.73;;;14.59;65.14
50302;BME280;36550;50.472;19.744;2023-04-21T08:30:35;98299.80;;;14.63;64.77
50302;BME280;36550;50.472;19.744;2023-04-21T08:33:20;98300.10;;;14.69;65.26
50302;BME280;36550;50.472;19.744;2023-04-21T08:36:04;98298.33;;;14.73;65.08
50302;BME280;36550;50.472;19.744;2023-04-21T08:38:48;98296.71;;;14.76;64.28
50302;BME280;36550;50.472;19.744;2023-04-21T08:41:33;98294.45;;;14.78;64.55
50302;BME280;36550;50.472;19.744;2023-04-21T08:44:17;98295.11;;;14.81;64.26
50302;BME280;36550;50.472;19.744;2023-04-21T08:47:02;98292.63;;;14.82;64.50
50302;BME280;36550;50.472;19.744;2023-04-21T08:49:49;98290.80;;;14.85;64.78
50302;BME280;36550;50.472;19.744;2023-04-21T08:52:33;98287.70;;;14.88;64.94
50302;BME280;36550;50.472;19.744;2023-04-21T08:55:17;98288.89;;;14.92;64.56
50302;BME280;36550;50.472;19.744;2023-04-21T08:58:03;98279.44;;;14.95;64.44
50302;BME280;36550;50.472;19.744;2023-04-21T09:00:49;98274.82;;;15.00;64.44
50302;BME280;36550;50.472;19.744;2023-04-21T09:03:33;98271.25;;;15.06;64.54
50302;BME280;36550;50.472;19.744;2023-04-21T09:06:17;98274.52;;;15.16;63.91
50302;BME280;36550;50.472;19.744;2023-04-21T09:09:01;98274.89;;;15.27;63.46
50302;BME280;36550;50.472;19.744;2023-04-21T09:11:56;98272.98;;;15.40;62.83
50302;BME280;36550;50.472;19.744;2023-04-21T09:14:41;98267.48;;;15.52;61.94
50302;BME280;36550;50.472;19.744;2023-04-21T09:17:30;98266.30;;;15.63;60.65
50302;BME280;36550;50.472;19.744;2023-04-21T09:20:20;98267.17;;;15.72;59.78
50302;BME280;36550;50.472;19.744;2023-04-21T09:23:05;98266.40;;;15.75;59.50
50302;BME280;36550;50.472;19.744;2023-04-21T09:25:49;98270.05;;;15.75;58.72
50302;BME280;36550;50.472;19.744;2023-04-21T09:28:34;98264.56;;;15.69;59.16
50302;BME280;36550;50.472;19.744;2023-04-21T09:31:19;98267.71;;;15.64;58.62
50302;BME280;36550;50.472;19.744;2023-04-21T09:34:16;98260.46;;;15.59;58.18
50302;BME280;36550;50.472;19.744;2023-04-21T09:37:04;98256.70;;;15.59;58.76
50302;BME280;36550;50.472;19.744;2023-04-21T09:39:48;98254.05;;;15.59;58.50
50302;BME280;36550;50.472;19.744;2023-04-21T09:42:32;98254.33;;;15.57;57.47
50302;BME280;36550;50.472;19.744;2023-04-21T09:45:16;98254.84;;;15.55;56.58
50302;BME280;36550;50.472;19.744;2023-04-21T09:48:02;98253.84;;;15.58;54.61
50302;BME280;36550;50.472;19.744;2023-04-21T09:50:46;98251.27;;;15.63;53.89
50302;BME280;36550;50.472;19.744;2023-04-21T09:53:32;98253.31;;;15.73;54.00
50302;BME280;36550;50.472;19.744;2023-04-21T09:56:20;98252.55;;;15.88;53.25
50302;BME280;36550;50.472;19.744;2023-04-21T09:59:06;98255.18;;;16.07;53.07
50302;BME280;36550;50.472;19.744;2023-04-21T10:01:52;98248.51;;;16.16;51.64
50302;BME280;36550;50.472;19.744;2023-04-21T10:04:37;98245.28;;;16.15;52.43
50302;BME280;36550;50.472;19.744;2023-04-21T10:07:22;98244.89;;;16.08;51.35
50302;BME280;36550;50.472;19.744;2023-04-21T10:10:09;98244.52;;;15.99;51.89
50302;BME280;36550;50.472;19.744;2023-04-21T10:12:56;98243.78;;;15.94;51.05
50302;BME280;36550;50.472;19.744;2023-04-21T10:15:40;98240.97;;;15.91;50.66
50302;BME280;36550;50.472;19.744;2023-04-21T10:18:27;98237.30;;;15.87;51.37
50302;BME280;36550;50.472;19.744;2023-04-21T10:21:17;98231.48;;;15.82;50.45
50302;BME280;36550;50.472;19.744;2023-04-21T10:24:05;98232.44;;;15.83;50.83
50302;BME280;36550;50.472;19.744;2023-04-21T10:26:49;98229.53;;;15.94;49.33
50302;BME280;36550;50.472;19.744;2023-04-21T10:29:34;98225.20;;;16.13;48.80
50302;BME280;36550;50.472;19.744;2023-04-21T10:32:38;98221.64;;;16.41;48.32
50302;BME280;36550;50.472;19.744;2023-04-21T10:35:23;98215.65;;;16.76;48.17
50302;BME280;36550;50.472;19.744;2023-04-21T10:38:07;98215.71;;;17.09;47.97
50302;BME280;36550;50.472;19.744;2023-04-21T10:40:51;98207.92;;;17.42;47.41
50302;BME280;36550;50.472;19.744;2023-04-21T10:43:45;98212.05;;;17.71;47.53
50302;BME280;36550;50.472;19.744;2023-04-21T10:46:32;98211.61;;;18.00;47.09
50302;BME280;36550;50.472;19.744;2023-04-21T10:52:07;98214.59;;;18.17;43.93
50302;BME280;36550;50.472;19.744;2023-04-21T10:57:41;98210.18;;;17.90;43.77
50302;BME280;36550;50.472;19.744;2023-04-21T11:00:27;98207.91;;;17.72;44.96
50302;BME280;36550;50.472;19.744;2023-04-21T11:03:12;98209.83;;;17.53;44.68
50302;BME280;36550;50.472;19.744;2023-04-21T11:05:56;98207.48;;;17.34;44.04
50302;BME280;36550;50.472;19.744;2023-04-21T11:08:56;98204.99;;;17.12;44.12
50302;BME280;36550;50.472;19.744;2023-04-21T11:11:40;98197.32;;;16.94;45.05
50302;BME280;36550;50.472;19.744;2023-04-21T11:14:24;98196.14;;;16.84;44.85
50302;BME280;36550;50.472;19.744;2023-04-21T11:17:13;98195.48;;;16.82;43.35
50302;BME280;36550;50.472;19.744;2023-04-21T11:19:57;98192.35;;;16.82;43.02
50302;BME280;36550;50.472;19.744;2023-04-21T11:22:42;98187.70;;;16.84;43.08
50302;BME280;36550;50.472;19.744;2023-04-21T11:25:25;98178.83;;;16.89;43.67
50302;BME280;36550;50.472;19.744;2023-04-21T11:28:09;98179.81;;;16.96;43.40
50302;BME280;36550;50.472;19.744;2023-04-21T11:30:53;98175.03;;;17.00;42.52
50302;BME280;36550;50.472;19.744;2023-04-21T11:33:37;98167.83;;;17.00;42.81
50302;BME280;36550;50.472;19.744;2023-04-21T11:36:22;98172.18;;;16.97;42.07
50302;BME280;36550;50.472;19.744;2023-04-21T11:39:08;98175.54;;;16.92;42.31
50302;BME280;36550;50.472;19.744;2023-04-21T11:41:53;98174.35;;;16.84;41.23
50302;BME280;36550;50.472;19.744;2023-04-21T11:44:40;98178.15;;;16.77;41.39
50302;BME280;36550;50.472;19.744;2023-04-21T11:47:25;98173.46;;;16.72;41.34
50302;BME280;36550;50.472;19.744;2023-04-21T11:50:09;98171.13;;;16.71;41.44
50302;BME280;36550;50.472;19.744;2023-04-21T11:52:54;98171.64;;;16.80;42.44
50302;BME280;36550;50.472;19.744;2023-04-21T11:55:41;98163.13;;;16.92;42.13
50302;BME280;36550;50.472;19.744;2023-04-21T11:58:25;98162.33;;;17.05;42.42
50302;BME280;36550;50.472;19.744;2023-04-21T12:01:09;98157.66;;;17.13;42.09
50302;BME280;36550;50.472;19.744;2023-04-21T12:03:54;98157.55;;;17.16;41.55
50302;BME280;36550;50.472;19.744;2023-04-21T12:06:38;98157.86;;;17.08;39.16
50302;BME280;36550;50.472;19.744;2023-04-21T12:09:22;98156.27;;;16.99;40.88
50302;BME280;36550;50.472;19.744;2023-04-21T12:12:08;98161.47;;;16.96;42.07
50302;BME280;36550;50.472;19.744;2023-04-21T12:14:52;98157.14;;;16.91;41.44
50302;BME280;36550;50.472;19.744;2023-04-21T12:17:43;98155.15;;;16.85;41.46
50302;BME280;36550;50.472;19.744;2023-04-21T12:20:28;98151.30;;;16.83;42.26
50302;BME280;36550;50.472;19.744;2023-04-21T12:23:12;98148.95;;;16.83;41.30
50302;BME280;36550;50.472;19.744;2023-04-21T12:25:56;98153.57;;;16.83;41.15
50302;BME280;36550;50.472;19.744;2023-04-21T12:28:40;98144.02;;;16.84;41.44
50302;BME280;36550;50.472;19.744;2023-04-21T12:31:24;98133.35;;;16.88;41.55
50302;BME280;36550;50.472;19.744;2023-04-21T12:34:09;98135.34;;;16.93;40.47
50302;BME280;36550;50.472;19.744;2023-04-21T12:36:53;98128.91;;;16.98;40.48
50302;BME280;36550;50.472;19.744;2023-04-21T12:39:37;98127.77;;;17.02;40.92
50302;BME280;36550;50.472;19.744;2023-04-21T12:42:21;98122.51;;;17.04;41.73
50302;BME280;36550;50.472;19.744;2023-04-21T12:45:07;98119.27;;;17.03;42.12
50302;BME280;36550;50.472;19.744;2023-04-21T12:47:51;98123.16;;;17.01;41.83
50302;BME280;36550;50.472;19.744;2023-04-21T12:50:34;98114.61;;;16.95;41.21
50302;BME280;36550;50.472;19.744;2023-04-21T12:53:18;98118.60;;;16.92;41.74
50302;BME280;36550;50.472;19.744;2023-04-21T12:56:02;98115.38;;;16.89;42.07
50302;BME280;36550;50.472;19.744;2023-04-21T12:58:47;98117.98;;;16.87;42.23
50302;BME280;36550;50.472;19.744;2023-04-21T13:01:31;98114.11;;;16.79;40.27
50302;BME280;36550;50.472;19.744;2023-04-21T13:04:15;98116.64;;;16.73;41.20
50302;BME280;36550;50.472;19.744;2023-04-21T13:06:59;98115.23;;;16.70;42.45
50302;BME280;36550;50.472;19.744;2023-04-21T13:09:43;98114.11;;;16.69;42.17
50302;BME280;36550;50.472;19.744;2023-04-21T13:12:27;98107.59;;;16.66;41.96
50302;BME280;36550;50.472;19.744;2023-04-21T13:15:11;98108.89;;;16.61;41.56
50302;BME280;36550;50.472;19.744;2023-04-21T13:17:55;98109.87;;;16.58;41.60
50302;BME280;36550;50.472;19.744;2023-04-21T13:20:38;98103.95;;;16.53;41.46
50302;BME280;36550;50.472;19.744;2023-04-21T13:23:22;98105.02;;;16.48;41.29
50302;BME280;36550;50.472;19.744;2023-04-21T13:26:07;98093.27;;;16.43;41.04
50302;BME280;36550;50.472;19.744;2023-04-21T13:28:51;98100.48;;;16.40;41.52
50302;BME280;36550;50.472;19.744;2023-04-21T13:31:35;98094.30;;;16.36;41.61
50302;BME280;36550;50.472;19.744;2023-04-21T13:34:18;98083.08;;;16.33;41.78
50302;BME280;36550;50.472;19.744;2023-04-21T13:37:02;98083.09;;;16.31;42.06
50302;BME280;36550;50.472;19.744;2023-04-21T13:39:46;98083.16;;;16.28;41.49
50302;BME280;36550;50.472;19.744;2023-04-21T13:42:30;98084.27;;;16.27;40.84
50302;BME280;36550;50.472;19.744;2023-04-21T13:45:14;98075.54;;;16.25;40.70
50302;BME280;36550;50.472;19.744;2023-04-21T13:47:58;98076.96;;;16.23;40.64
50302;BME280;36550;50.472;19.744;2023-04-21T13:50:42;98083.80;;;16.21;40.15
50302;BME280;36550;50.472;19.744;2023-04-21T13:53:26;98073.42;;;16.19;40.73
50302;BME280;36550;50.472;19.744;2023-04-21T13:56:10;98068.27;;;16.15;41.17
50302;BME280;36550;50.472;19.744;2023-04-21T13:58:54;98064.81;;;16.15;41.60
50302;BME280;36550;50.472;19.744;2023-04-21T14:01:38;98064.11;;;16.14;40.92
50302;BME280;36550;50.472;19.744;2023-04-21T14:04:22;98062.70;;;16.14;40.75
50302;BME280;36550;50.472;19.744;2023-04-21T14:07:06;98061.69;;;16.13;40.58
50302;BME280;36550;50.472;19.744;2023-04-21T14:09:51;98064.06;;;16.12;38.43
50302;BME280;36550;50.472;19.744;2023-04-21T14:12:35;98062.96;;;16.11;38.37
50302;BME280;36550;50.472;19.744;2023-04-21T14:15:19;98059.84;;;16.11;38.96
50302;BME280;36550;50.472;19.744;2023-04-21T14:18:03;98060.05;;;16.13;38.97
50302;BME280;36550;50.472;19.744;2023-04-21T14:20:47;98062.42;;;16.14;38.74
50302;BME280;36550;50.472;19.744;2023-04-21T14:23:31;98056.23;;;16.14;39.19
50302;BME280;36550;50.472;19.744;2023-04-21T14:26:15;98049.19;;;16.13;39.41
50302;BME280;36550;50.472;19.744;2023-04-21T14:28:59;98046.27;;;16.14;39.52
50302;BME280;36550;50.472;19.744;2023-04-21T14:31:44;98043.20;;;16.14;38.76